sensor_id;sensor_type;location;lat;lon;timestamp;P1;durP1;ratioP1;P2;durP2;ratioP2
20462;SDS011;10390;53.566;9.980;2023-07-24T00:02:04;5.45;;;4.50;;
20462;SDS011;10390;53.566;9.980;2023-07-24T00:04:33;5.50;;;5.00;;
20462;SDS011;10390;53.566;9.980;2023-07-24T00:06:59;5.70;;;5.20;;
20462;SDS011;10390;53.566;9.980;2023-07-24T00:09:25;5.88;;;5.38;;
20462;SDS011;10390;53.566;9.980;2023-07-24T00:11:51;5.57;;;5.07;;
20462;SDS011;10390;53.566;9.980;2023-07-24T00:14:16;6.10;;;5.55;;
20462;SDS011;10390;53.566;9.980;2023-07-24T00:16:42;6.63;;;5.65;;
20462;SDS011;10390;53.566;9.980;2023-07-24T00:19:08;5.40;;;4.90;;
20462;SDS011;10390;53.566;9.980;2023-07-24T00:21:33;6.20;;;5.60;;
20462;SDS011;10390;53.566;9.980;2023-07-24T00:23:59;5.95;;;5.35;;
20462;SDS011;10390;53.566;9.980;2023-07-24T00:26:24;5.88;;;5.35;;
20462;SDS011;10390;53.566;9.980;2023-07-24T00:28:50;5.45;;;4.95;;
20462;SDS011;10390;53.566;9.980;2023-07-24T00:31:16;5.40;;;4.90;;
20462;SDS011;10390;53.566;9.980;2023-07-24T00:33:41;5.90;;;5.20;;
20462;SDS011;10390;53.566;9.980;2023-07-24T00:36:07;6.82;;;5.38;;
20462;SDS011;10390;53.566;9.980;2023-07-24T00:38:32;5.70;;;5.20;;
20462;SDS011;10390;53.566;9.980;2023-07-24T00:40:58;5.80;;;5.30;;
20462;SDS011;10390;53.566;9.980;2023-07-24T00:43:23;6.03;;;5.43;;
20462;SDS011;10390;53.566;9.980;2023-07-24T00:45:49;5.53;;;5.03;;
20462;SDS011;10390;53.566;9.980;2023-07-24T00:48:15;5.75;;;5.20;;
20462;SDS011;10390;53.566;9.980;2023-07-24T00:50:41;5.75;;;5.15;;
20462;SDS011;10390;53.566;9.980;2023-07-24T00:53:10;5.40;;;4.90;;
20462;SDS011;10390;53.566;9.980;2023-07-24T00:55:37;5.53;;;5.03;;
20462;SDS011;10390;53.566;9.980;2023-07-24T00:58:03;5.88;;;5.07;;
20462;SDS011;10390;53.566;9.980;2023-07-24T01:00:29;5.80;;;5.30;;
20462;SDS011;10390;53.566;9.980;2023-07-24T01:02:55;5.75;;;5.25;;
20462;SDS011;10390;53.566;9.980;2023-07-24T01:05:22;6.47;;;5.32;;
20462;SDS011;10390;53.566;9.980;2023-07-24T01:07:50;5.70;;;5.13;;
20462;SDS011;10390;53.566;9.980;2023-07-24T01:10:17;5.50;;;5.00;;
20462;SDS011;10390;53.566;9.980;2023-07-24T01:12:59;5.80;;;5.22;;
20462;SDS011;10390;53.566;9.980;2023-07-24T01:18:06;5.40;;;4.80;;
20462;SDS011;10390;53.566;9.980;2023-07-24T01:20:38;5.22;;;4.72;;
20462;SDS011;10390;53.566;9.980;2023-07-24T01:23:17;5.88;;;5.28;;
20462;SDS011;10390;53.566;9.980;2023-07-24T01:26:00;6.00;;;5.40;;
20462;SDS011;10390;53.566;9.980;2023-07-24T01:28:29;5.72;;;5.22;;
20462;SDS011;10390;53.566;9.980;2023-07-24T01:30:54;5.68;;;5.07;;
20462;SDS011;10390;53.566;9.980;2023-07-24T01:33:21;6.13;;;5.53;;
20462;SDS011;10390;53.566;9.980;2023-07-24T01:35:53;6.15;;;5.55;;
20462;SDS011;10390;53.566;9.980;2023-07-24T01:38:22;5.43;;;4.93;;
20462;SDS011;10390;53.566;9.980;2023-07-24T01:40:50;5.97;;;5.38;;
20462;SDS011;10390;53.566;9.980;2023-07-24T01:43:18;5.43;;;4.93;;
20462;SDS011;10390;53.566;9.980;2023-07-24T01:45:43;5.78;;;5.28;;
20462;SDS011;10390;53.566;9.980;2023-07-24T01:48:09;5.80;;;5.30;;
20462;SDS011;10390;53.566;9.980;2023-07-24T01:50:35;5.75;;;5.25;;
20462;SDS011;10390;53.566;9.980;2023-07-24T01:53:00;5.72;;;5.22;;
20462;SDS011;10390;53.566;9.980;2023-07-24T01:55:26;5.20;;;4.70;;
20462;SDS011;10390;53.566;9.980;2023-07-24T01:57:51;5.35;;;4.85;;
20462;SDS011;10390;53.566;9.980;2023-07-24T02:00:17;5.90;;;5.40;;
20462;SDS011;10390;53.566;9.980;2023-07-24T02:02:42;5.45;;;4.95;;
20462;SDS011;10390;53.566;9.980;2023-07-24T02:05:08;5.63;;;5.13;;
20462;SDS011;10390;53.566;9.980;2023-07-24T02:07:34;5.50;;;5.00;;
20462;SDS011;10390;53.566;9.980;2023-07-24T02:10:00;5.53;;;5.03;;
20462;SDS011;10390;53.566;9.980;2023-07-24T02:12:25;5.85;;;4.95;;
20462;SDS011;10390;53.566;9.980;2023-07-24T02:14:51;5.85;;;5.35;;
20462;SDS011;10390;53.566;9.980;2023-07-24T02:17:17;5.80;;;5.30;;
20462;SDS011;10390;53.566;9.980;2023-07-24T02:19:43;5.72;;;5.22;;
20462;SDS011;10390;53.566;9.980;2023-07-24T02:22:09;5.75;;;5.25;;
20462;SDS011;10390;53.566;9.980;2023-07-24T02:24:35;6.13;;;5.53;;
20462;SDS011;10390;53.566;9.980;2023-07-24T02:27:01;5.47;;;4.97;;
20462;SDS011;10390;53.566;9.980;2023-07-24T02:29:27;5.78;;;5.28;;
20462;SDS011;10390;53.566;9.980;2023-07-24T02:31:53;5.53;;;5.03;;
20462;SDS011;10390;53.566;9.980;2023-07-24T02:34:19;5.15;;;4.65;;
20462;SDS011;10390;53.566;9.980;2023-07-24T02:36:49;6.20;;;5.60;;
20462;SDS011;10390;53.566;9.980;2023-07-24T02:39:15;5.45;;;4.95;;
20462;SDS011;10390;53.566;9.980;2023-07-24T02:41:41;5.63;;;5.13;;
20462;SDS011;10390;53.566;9.980;2023-07-24T02:44:06;5.57;;;4.72;;
20462;SDS011;10390;53.566;9.980;2023-07-24T02:46:32;5.68;;;5.18;;
20462;SDS011;10390;53.566;9.980;2023-07-24T02:48:57;5.47;;;4.97;;
20462;SDS011;10390;53.566;9.980;2023-07-24T02:51:23;6.03;;;5.43;;
20462;SDS011;10390;53.566;9.980;2023-07-24T02:53:49;5.07;;;4.57;;
20462;SDS011;10390;53.566;9.980;2023-07-24T02:56:14;5.38;;;4.88;;
20462;SDS011;10390;53.566;9.980;2023-07-24T02:58:40;5.20;;;4.70;;
20462;SDS011;10390;53.566;9.980;2023-07-24T03:01:06;5.35;;;4.85;;
20462;SDS011;10390;53.566;9.980;2023-07-24T03:03:32;5.20;;;4.70;;
20462;SDS011;10390;53.566;9.980;2023-07-24T03:05:58;5.25;;;4.75;;
20462;SDS011;10390;53.566;9.980;2023-07-24T03:08:24;5.20;;;4.70;;
20462;SDS011;10390;53.566;9.980;2023-07-24T03:10:50;5.60;;;5.03;;
20462;SDS011;10390;53.566;9.980;2023-07-24T03:13:15;5.90;;;5.32;;
20462;SDS011;10390;53.566;9.980;2023-07-24T03:15:41;5.60;;;5.10;;
20462;SDS011;10390;53.566;9.980;2023-07-24T03:18:06;5.53;;;5.03;;
20462;SDS011;10390;53.566;9.980;2023-07-24T03:20:32;5.38;;;4.88;;
20462;SDS011;10390;53.566;9.980;2023-07-24T03:22:58;5.03;;;4.53;;
20462;SDS011;10390;53.566;9.980;2023-07-24T03:25:23;4.97;;;4.47;;
20462;SDS011;10390;53.566;9.980;2023-07-24T03:27:49;5.85;;;5.35;;
20462;SDS011;10390;53.566;9.980;2023-07-24T03:30:14;4.80;;;4.30;;
20462;SDS011;10390;53.566;9.980;2023-07-24T03:32:40;5.38;;;4.88;;
20462;SDS011;10390;53.566;9.980;2023-07-24T03:35:06;5.28;;;4.78;;
20462;SDS011;10390;53.566;9.980;2023-07-24T03:37:33;5.20;;;4.70;;
20462;SDS011;10390;53.566;9.980;2023-07-24T03:39:59;5.03;;;4.53;;
20462;SDS011;10390;53.566;9.980;2023-07-24T03:42:28;4.90;;;4.38;;
20462;SDS011;10390;53.566;9.980;2023-07-24T03:44:55;5.30;;;4.80;;
20462;SDS011;10390;53.566;9.980;2023-07-24T03:47:22;5.53;;;5.03;;
20462;SDS011;10390;53.566;9.980;2023-07-24T03:49:48;5.40;;;4.90;;
20462;SDS011;10390;53.566;9.980;2023-07-24T03:52:14;5.40;;;4.90;;
20462;SDS011;10390;53.566;9.980;2023-07-24T03:54:40;6.00;;;5.40;;
20462;SDS011;10390;53.566;9.980;2023-07-24T03:57:05;5.50;;;5.00;;
20462;SDS011;10390;53.566;9.980;2023-07-24T03:59:33;5.82;;;5.32;;
20462;SDS011;10390;53.566;9.980;2023-07-24T04:01:59;5.47;;;4.97;;
20462;SDS011;10390;53.566;9.980;2023-07-24T04:04:27;5.75;;;5.18;;
20462;SDS011;10390;53.566;9.980;2023-07-24T04:06:52;5.68;;;5.07;;
20462;SDS011;10390;53.566;9.980;2023-07-24T04:09:21;5.45;;;4.95;;
20462;SDS011;10390;53.566;9.980;2023-07-24T04:11:49;5.68;;;4.57;;
20462;SDS011;10390;53.566;9.980;2023-07-24T04:14:14;5.20;;;4.70;;
20462;SDS011;10390;53.566;9.980;2023-07-24T04:16:43;5.00;;;4.50;;
20462;SDS011;10390;53.566;9.980;2023-07-24T04:19:13;5.07;;;4.57;;
20462;SDS011;10390;53.566;9.980;2023-07-24T04:21:49;5.55;;;5.00;;
20462;SDS011;10390;53.566;9.980;2023-07-24T04:24:15;5.10;;;4.57;;
20462;SDS011;10390;53.566;9.980;2023-07-24T04:26:50;5.35;;;4.85;;
20462;SDS011;10390;53.566;9.980;2023-07-24T04:29:16;5.22;;;4.72;;
20462;SDS011;10390;53.566;9.980;2023-07-24T04:31:41;5.40;;;4.90;;
20462;SDS011;10390;53.566;9.980;2023-07-24T04:34:21;5.32;;;4.82;;
20462;SDS011;10390;53.566;9.980;2023-07-24T04:36:52;5.20;;;4.70;;
20462;SDS011;10390;53.566;9.980;2023-07-24T04:39:20;5.40;;;4.90;;
20462;SDS011;10390;53.566;9.980;2023-07-24T04:41:51;5.10;;;4.60;;
20462;SDS011;10390;53.566;9.980;2023-07-24T04:44:19;5.00;;;4.50;;
20462;SDS011;10390;53.566;9.980;2023-07-24T04:46:50;5.15;;;4.65;;
20462;SDS011;10390;53.566;9.980;2023-07-24T04:49:16;5.40;;;4.75;;
20462;SDS011;10390;53.566;9.980;2023-07-24T04:51:41;5.40;;;4.90;;
20462;SDS011;10390;53.566;9.980;2023-07-24T04:54:10;5.68;;;5.10;;
20462;SDS011;10390;53.566;9.980;2023-07-24T04:56:35;5.10;;;4.60;;
20462;SDS011;10390;53.566;9.980;2023-07-24T04:59:03;5.05;;;4.55;;
20462;SDS011;10390;53.566;9.980;2023-07-24T05:01:34;5.03;;;4.53;;
20462;SDS011;10390;53.566;9.980;2023-07-24T05:03:59;5.45;;;4.95;;
20462;SDS011;10390;53.566;9.980;2023-07-24T05:06:26;5.60;;;5.10;;
20462;SDS011;10390;53.566;9.980;2023-07-24T05:08:54;6.00;;;5.40;;
20462;SDS011;10390;53.566;9.980;2023-07-24T05:11:25;5.78;;;5.25;;
20462;SDS011;10390;53.566;9.980;2023-07-24T05:13:54;5.70;;;5.18;;
20462;SDS011;10390;53.566;9.980;2023-07-24T05:16:25;5.15;;;4.65;;
20462;SDS011;10390;53.566;9.980;2023-07-24T05:18:51;5.47;;;4.97;;
20462;SDS011;10390;53.566;9.980;2023-07-24T05:21:20;5.35;;;4.85;;
20462;SDS011;10390;53.566;9.980;2023-07-24T05:23:51;5.15;;;4.65;;
20462;SDS011;10390;53.566;9.980;2023-07-24T05:26:22;5.70;;;5.20;;
20462;SDS011;10390;53.566;9.980;2023-07-24T05:28:48;5.53;;;5.03;;
20462;SDS011;10390;53.566;9.980;2023-07-24T05:31:13;5.63;;;5.13;;
20462;SDS011;10390;53.566;9.980;2023-07-24T05:33:45;5.78;;;5.28;;
20462;SDS011;10390;53.566;9.980;2023-07-24T05:36:10;5.32;;;4.82;;
20462;SDS011;10390;53.566;9.980;2023-07-24T05:38:41;5.60;;;5.10;;
20462;SDS011;10390;53.566;9.980;2023-07-24T05:41:13;5.28;;;4.68;;
20462;SDS011;10390;53.566;9.980;2023-07-24T05:43:41;6.65;;;5.03;;
20462;SDS011;10390;53.566;9.980;2023-07-24T05:46:07;5.53;;;5.03;;
20462;SDS011;10390;53.566;9.980;2023-07-24T05:48:38;5.40;;;4.90;;
20462;SDS011;10390;53.566;9.980;2023-07-24T05:51:06;5.60;;;5.10;;
20462;SDS011;10390;53.566;9.980;2023-07-24T05:53:36;5.68;;;5.18;;
20462;SDS011;10390;53.566;9.980;2023-07-24T05:56:02;5.68;;;5.18;;
20462;SDS011;10390;53.566;9.980;2023-07-24T05:58:34;5.72;;;5.22;;
20462;SDS011;10390;53.566;9.980;2023-07-24T06:01:11;6.38;;;5.78;;
20462;SDS011;10390;53.566;9.980;2023-07-24T06:03:39;5.53;;;5.03;;
20462;SDS011;10390;53.566;9.980;2023-07-24T06:06:07;5.63;;;5.13;;
20462;SDS011;10390;53.566;9.980;2023-07-24T06:08:41;6.10;;;5.50;;
20462;SDS011;10390;53.566;9.980;2023-07-24T06:11:09;6.05;;;5.45;;
20462;SDS011;10390;53.566;9.980;2023-07-24T06:13:39;6.10;;;5.55;;
20462;SDS011;10390;53.566;9.980;2023-07-24T06:16:07;6.15;;;5.55;;
20462;SDS011;10390;53.566;9.980;2023-07-24T06:18:35;6.75;;;5.95;;
20462;SDS011;10390;53.566;9.980;2023-07-24T06:21:01;5.95;;;5.38;;
20462;SDS011;10390;53.566;9.980;2023-07-24T06:23:26;6.00;;;5.40;;
20462;SDS011;10390;53.566;9.980;2023-07-24T06:25:52;6.30;;;5.70;;
20462;SDS011;10390;53.566;9.980;2023-07-24T06:28:18;6.45;;;5.85;;
20462;SDS011;10390;53.566;9.980;2023-07-24T06:30:44;6.18;;;5.68;;
20462;SDS011;10390;53.566;9.980;2023-07-24T06:33:10;6.03;;;5.28;;
20462;SDS011;10390;53.566;9.980;2023-07-24T06:35:35;6.10;;;5.50;;
20462;SDS011;10390;53.566;9.980;2023-07-24T06:38:01;6.20;;;5.45;;
20462;SDS011;10390;53.566;9.980;2023-07-24T06:40:26;5.57;;;5.07;;
20462;SDS011;10390;53.566;9.980;2023-07-24T06:42:52;6.50;;;5.90;;
20462;SDS011;10390;53.566;9.980;2023-07-24T06:45:18;5.97;;;5.47;;
20462;SDS011;10390;53.566;9.980;2023-07-24T06:47:43;6.10;;;5.60;;
20462;SDS011;10390;53.566;9.980;2023-07-24T06:50:09;6.13;;;5.63;;
20462;SDS011;10390;53.566;9.980;2023-07-24T06:52:35;6.07;;;5.57;;
20462;SDS011;10390;53.566;9.980;2023-07-24T06:55:00;6.20;;;5.60;;
20462;SDS011;10390;53.566;9.980;2023-07-24T06:57:26;6.20;;;5.70;;
20462;SDS011;10390;53.566;9.980;2023-07-24T06:59:52;6.13;;;5.55;;
20462;SDS011;10390;53.566;9.980;2023-07-24T07:02:17;6.30;;;5.70;;
20462;SDS011;10390;53.566;9.980;2023-07-24T07:04:43;6.28;;;5.75;;
20462;SDS011;10390;53.566;9.980;2023-07-24T07:07:09;5.78;;;5.28;;
20462;SDS011;10390;53.566;9.980;2023-07-24T07:09:35;6.50;;;5.90;;
20462;SDS011;10390;53.566;9.980;2023-07-24T07:12:00;6.03;;;5.53;;
20462;SDS011;10390;53.566;9.980;2023-07-24T07:14:26;6.55;;;5.95;;
20462;SDS011;10390;53.566;9.980;2023-07-24T07:16:51;6.68;;;5.53;;
20462;SDS011;10390;53.566;9.980;2023-07-24T07:19:17;6.10;;;5.50;;
20462;SDS011;10390;53.566;9.980;2023-07-24T07:21:42;6.38;;;5.80;;
20462;SDS011;10390;53.566;9.980;2023-07-24T07:24:08;6.63;;;6.03;;
20462;SDS011;10390;53.566;9.980;2023-07-24T07:26:34;6.50;;;5.90;;
20462;SDS011;10390;53.566;9.980;2023-07-24T07:28:59;6.25;;;5.70;;
20462;SDS011;10390;53.566;9.980;2023-07-24T07:31:25;6.30;;;5.80;;
20462;SDS011;10390;53.566;9.980;2023-07-24T07:33:50;5.85;;;5.35;;
20462;SDS011;10390;53.566;9.980;2023-07-24T07:36:16;6.68;;;6.07;;
20462;SDS011;10390;53.566;9.980;2023-07-24T07:38:43;6.15;;;5.55;;
20462;SDS011;10390;53.566;9.980;2023-07-24T07:41:08;6.30;;;5.70;;
20462;SDS011;10390;53.566;9.980;2023-07-24T07:43:34;6.40;;;5.80;;
20462;SDS011;10390;53.566;9.980;2023-07-24T07:46:01;6.20;;;5.50;;
20462;SDS011;10390;53.566;9.980;2023-07-24T07:48:27;6.13;;;5.63;;
20462;SDS011;10390;53.566;9.980;2023-07-24T07:50:53;6.28;;;5.68;;
20462;SDS011;10390;53.566;9.980;2023-07-24T07:53:19;6.93;;;5.90;;
20462;SDS011;10390;53.566;9.980;2023-07-24T07:55:44;6.70;;;6.10;;
20462;SDS011;10390;53.566;9.980;2023-07-24T07:58:10;6.47;;;5.88;;
20462;SDS011;10390;53.566;9.980;2023-07-24T08:00:36;6.10;;;5.50;;
20462;SDS011;10390;53.566;9.980;2023-07-24T08:03:04;7.28;;;5.90;;
20462;SDS011;10390;53.566;9.980;2023-07-24T08:05:30;5.82;;;5.20;;
20462;SDS011;10390;53.566;9.980;2023-07-24T08:07:57;6.22;;;5.72;;
20462;SDS011;10390;53.566;9.980;2023-07-24T08:10:22;5.80;;;5.30;;
20462;SDS011;10390;53.566;9.980;2023-07-24T08:12:48;5.25;;;4.75;;
20462;SDS011;10390;53.566;9.980;2023-07-24T08:15:13;6.35;;;5.75;;
20462;SDS011;10390;53.566;9.980;2023-07-24T08:17:39;5.72;;;5.22;;
20462;SDS011;10390;53.566;9.980;2023-07-24T08:20:05;6.20;;;5.50;;
20462;SDS011;10390;53.566;9.980;2023-07-24T08:22:31;6.60;;;5.47;;
20462;SDS011;10390;53.566;9.980;2023-07-24T08:24:56;5.97;;;5.38;;
20462;SDS011;10390;53.566;9.980;2023-07-24T08:27:22;6.38;;;5.78;;
20462;SDS011;10390;53.566;9.980;2023-07-24T08:29:50;6.90;;;6.30;;
20462;SDS011;10390;53.566;9.980;2023-07-24T08:32:17;6.07;;;5.55;;
20462;SDS011;10390;53.566;9.980;2023-07-24T08:34:42;6.32;;;5.72;;
20462;SDS011;10390;53.566;9.980;2023-07-24T08:37:08;5.82;;;5.32;;
20462;SDS011;10390;53.566;9.980;2023-07-24T08:39:33;6.32;;;5.72;;
20462;SDS011;10390;53.566;9.980;2023-07-24T08:41:59;6.22;;;5.70;;
20462;SDS011;10390;53.566;9.980;2023-07-24T08:44:24;6.45;;;5.85;;
20462;SDS011;10390;53.566;9.980;2023-07-24T08:46:53;6.60;;;6.00;;
20462;SDS011;10390;53.566;9.980;2023-07-24T08:49:19;5.85;;;5.25;;
20462;SDS011;10390;53.566;9.980;2023-07-24T08:51:46;6.13;;;5.53;;
20462;SDS011;10390;53.566;9.980;2023-07-24T08:54:12;5.57;;;5.07;;
20462;SDS011;10390;53.566;9.980;2023-07-24T08:56:38;6.13;;;5.53;;
20462;SDS011;10390;53.566;9.980;2023-07-24T08:59:07;5.95;;;5.45;;
20462;SDS011;10390;53.566;9.980;2023-07-24T09:01:33;5.82;;;5.32;;
20462;SDS011;10390;53.566;9.980;2023-07-24T09:03:58;5.90;;;5.40;;
20462;SDS011;10390;53.566;9.980;2023-07-24T09:06:25;6.03;;;5.43;;
20462;SDS011;10390;53.566;9.980;2023-07-24T09:08:53;5.93;;;5.43;;
20462;SDS011;10390;53.566;9.980;2023-07-24T09:11:19;5.50;;;5.00;;
20462;SDS011;10390;53.566;9.980;2023-07-24T09:13:44;6.40;;;5.80;;
20462;SDS011;10390;53.566;9.980;2023-07-24T09:16:31;6.65;;;6.05;;
20462;SDS011;10390;53.566;9.980;2023-07-24T09:18:56;6.53;;;5.93;;
20462;SDS011;10390;53.566;9.980;2023-07-24T09:21:29;5.95;;;5.45;;
20462;SDS011;10390;53.566;9.980;2023-07-24T09:23:55;6.78;;;6.18;;
20462;SDS011;10390;53.566;9.980;2023-07-24T09:26:20;6.38;;;5.78;;
20462;SDS011;10390;53.566;9.980;2023-07-24T09:28:52;5.57;;;5.07;;
20462;SDS011;10390;53.566;9.980;2023-07-24T09:31:19;6.35;;;5.75;;
20462;SDS011;10390;53.566;9.980;2023-07-24T09:33:44;6.35;;;5.75;;
20462;SDS011;10390;53.566;9.980;2023-07-24T09:36:11;6.20;;;5.60;;
20462;SDS011;10390;53.566;9.980;2023-07-24T09:38:38;6.28;;;5.72;;
20462;SDS011;10390;53.566;9.980;2023-07-24T09:41:04;6.93;;;6.32;;
20462;SDS011;10390;53.566;9.980;2023-07-24T09:43:31;6.05;;;5.45;;
20462;SDS011;10390;53.566;9.980;2023-07-24T09:45:57;6.72;;;6.13;;
20462;SDS011;10390;53.566;9.980;2023-07-24T09:48:24;6.43;;;5.82;;
20462;SDS011;10390;53.566;9.980;2023-07-24T09:50:54;6.72;;;6.10;;
20462;SDS011;10390;53.566;9.980;2023-07-24T09:53:32;6.80;;;6.20;;
20462;SDS011;10390;53.566;9.980;2023-07-24T09:56:02;6.63;;;6.03;;
20462;SDS011;10390;53.566;9.980;2023-07-24T09:58:29;6.72;;;6.13;;
20462;SDS011;10390;53.566;9.980;2023-07-24T10:00:59;7.13;;;6.53;;
20462;SDS011;10390;53.566;9.980;2023-07-24T10:03:27;7.28;;;6.63;;
20462;SDS011;10390;53.566;9.980;2023-07-24T10:05:53;7.40;;;6.80;;
20462;SDS011;10390;53.566;9.980;2023-07-24T10:08:20;7.18;;;6.57;;
20462;SDS011;10390;53.566;9.980;2023-07-24T10:10:45;7.07;;;6.47;;
20462;SDS011;10390;53.566;9.980;2023-07-24T10:13:12;6.97;;;6.32;;
20462;SDS011;10390;53.566;9.980;2023-07-24T10:15:42;6.82;;;6.22;;
20462;SDS011;10390;53.566;9.980;2023-07-24T10:18:09;6.75;;;6.15;;
20462;SDS011;10390;53.566;9.980;2023-07-24T10:20:35;6.68;;;6.07;;
20462;SDS011;10390;53.566;9.980;2023-07-24T10:23:03;6.55;;;5.95;;
20462;SDS011;10390;53.566;9.980;2023-07-24T10:25:30;6.80;;;5.75;;
20462;SDS011;10390;53.566;9.980;2023-07-24T10:30:41;6.60;;;6.00;;
20462;SDS011;10390;53.566;9.980;2023-07-24T10:35:36;6.63;;;6.07;;
20462;SDS011;10390;53.566;9.980;2023-07-24T10:38:03;6.97;;;6.38;;
20462;SDS011;10390;53.566;9.980;2023-07-24T10:40:28;6.80;;;6.20;;
20462;SDS011;10390;53.566;9.980;2023-07-24T10:43:14;6.90;;;6.25;;
20462;SDS011;10390;53.566;9.980;2023-07-24T10:45:50;6.68;;;6.07;;
20462;SDS011;10390;53.566;9.980;2023-07-24T10:48:18;6.90;;;6.30;;
20462;SDS011;10390;53.566;9.980;2023-07-24T10:51:05;6.68;;;6.07;;
20462;SDS011;10390;53.566;9.980;2023-07-24T10:53:40;6.93;;;6.32;;
20462;SDS011;10390;53.566;9.980;2023-07-24T10:56:11;7.05;;;6.45;;
20462;SDS011;10390;53.566;9.980;2023-07-24T10:58:36;6.40;;;5.80;;
20462;SDS011;10390;53.566;9.980;2023-07-24T11:01:05;6.50;;;5.90;;
20462;SDS011;10390;53.566;9.980;2023-07-24T11:03:32;6.97;;;6.30;;
20462;SDS011;10390;53.566;9.980;2023-07-24T11:06:00;7.75;;;7.05;;
20462;SDS011;10390;53.566;9.980;2023-07-24T11:08:27;6.90;;;6.30;;
20462;SDS011;10390;53.566;9.980;2023-07-24T11:10:56;6.93;;;6.32;;
20462;SDS011;10390;53.566;9.980;2023-07-24T11:13:24;6.78;;;6.18;;
20462;SDS011;10390;53.566;9.980;2023-07-24T11:15:57;6.85;;;6.15;;
20462;SDS011;10390;53.566;9.980;2023-07-24T11:18:30;6.60;;;6.00;;
20462;SDS011;10390;53.566;9.980;2023-07-24T11:20:55;6.95;;;6.25;;
20462;SDS011;10390;53.566;9.980;2023-07-24T11:23:22;7.10;;;6.47;;
20462;SDS011;10390;53.566;9.980;2023-07-24T11:25:52;7.40;;;6.80;;
20462;SDS011;10390;53.566;9.980;2023-07-24T11:28:19;7.47;;;6.82;;
20462;SDS011;10390;53.566;9.980;2023-07-24T11:30:45;7.32;;;6.68;;
20462;SDS011;10390;53.566;9.980;2023-07-24T11:33:11;7.05;;;6.45;;
20462;SDS011;10390;53.566;9.980;2023-07-24T11:35:39;6.97;;;6.38;;
20462;SDS011;10390;53.566;9.980;2023-07-24T11:38:09;7.63;;;7.03;;
20462;SDS011;10390;53.566;9.980;2023-07-24T11:40:38;7.60;;;6.95;;
20462;SDS011;10390;53.566;9.980;2023-07-24T11:43:14;7.00;;;6.40;;
20462;SDS011;10390;53.566;9.980;2023-07-24T11:45:42;7.93;;;7.22;;
20462;SDS011;10390;53.566;9.980;2023-07-24T11:48:11;7.43;;;6.75;;
20462;SDS011;10390;53.566;9.980;2023-07-24T11:50:47;7.15;;;6.55;;
20462;SDS011;10390;53.566;9.980;2023-07-24T11:53:21;7.05;;;6.40;;
20462;SDS011;10390;53.566;9.980;2023-07-24T11:56:12;6.93;;;6.32;;
20462;SDS011;10390;53.566;9.980;2023-07-24T11:58:39;7.43;;;6.70;;
20462;SDS011;10390;53.566;9.980;2023-07-24T12:01:05;6.93;;;6.32;;
20462;SDS011;10390;53.566;9.980;2023-07-24T12:03:31;6.88;;;6.28;;
20462;SDS011;10390;53.566;9.980;2023-07-24T12:05:57;6.97;;;6.38;;
20462;SDS011;10390;53.566;9.980;2023-07-24T12:08:29;7.00;;;6.30;;
20462;SDS011;10390;53.566;9.980;2023-07-24T12:10:57;6.75;;;6.15;;
20462;SDS011;10390;53.566;9.980;2023-07-24T12:13:23;7.10;;;6.50;;
20462;SDS011;10390;53.566;9.980;2023-07-24T12:15:48;8.00;;;7.30;;
20462;SDS011;10390;53.566;9.980;2023-07-24T12:18:14;7.05;;;6.35;;
20462;SDS011;10390;53.566;9.980;2023-07-24T12:20:40;6.82;;;6.22;;
20462;SDS011;10390;53.566;9.980;2023-07-24T12:23:06;6.70;;;6.10;;
20462;SDS011;10390;53.566;9.980;2023-07-24T12:25:31;6.70;;;6.10;;
20462;SDS011;10390;53.566;9.980;2023-07-24T12:27:57;6.50;;;5.90;;
20462;SDS011;10390;53.566;9.980;2023-07-24T12:30:22;7.25;;;6.65;;
20462;SDS011;10390;53.566;9.980;2023-07-24T12:32:48;6.28;;;5.68;;
20462;SDS011;10390;53.566;9.980;2023-07-24T12:35:15;6.60;;;6.00;;
20462;SDS011;10390;53.566;9.980;2023-07-24T12:37:41;7.07;;;6.38;;
20462;SDS011;10390;53.566;9.980;2023-07-24T12:40:08;6.88;;;6.28;;
20462;SDS011;10390;53.566;9.980;2023-07-24T12:42:34;7.05;;;6.35;;
20462;SDS011;10390;53.566;9.980;2023-07-24T12:45:00;6.78;;;6.18;;
20462;SDS011;10390;53.566;9.980;2023-07-24T12:47:27;6.75;;;6.15;;
20462;SDS011;10390;53.566;9.980;2023-07-24T12:49:53;6.47;;;5.88;;
20462;SDS011;10390;53.566;9.980;2023-07-24T12:52:20;7.22;;;6.55;;
20462;SDS011;10390;53.566;9.980;2023-07-24T12:54:46;6.82;;;6.22;;
20462;SDS011;10390;53.566;9.980;2023-07-24T12:57:11;6.43;;;5.82;;
20462;SDS011;10390;53.566;9.980;2023-07-24T12:59:37;6.70;;;6.10;;
20462;SDS011;10390;53.566;9.980;2023-07-24T13:02:03;7.22;;;6.63;;
20462;SDS011;10390;53.566;9.980;2023-07-24T13:04:28;6.03;;;5.45;;
20462;SDS011;10390;53.566;9.980;2023-07-24T13:06:54;6.85;;;6.25;;
20462;SDS011;10390;53.566;9.980;2023-07-24T13:09:20;6.95;;;6.25;;
20462;SDS011;10390;53.566;9.980;2023-07-24T13:11:45;6.70;;;6.10;;
20462;SDS011;10390;53.566;9.980;2023-07-24T13:14:16;6.35;;;5.75;;
20462;SDS011;10390;53.566;9.980;2023-07-24T13:16:41;6.07;;;5.53;;
20462;SDS011;10390;53.566;9.980;2023-07-24T13:19:07;6.63;;;5.93;;
20462;SDS011;10390;53.566;9.980;2023-07-24T13:21:33;6.97;;;6.38;;
20462;SDS011;10390;53.566;9.980;2023-07-24T13:23:58;7.10;;;6.40;;
20462;SDS011;10390;53.566;9.980;2023-07-24T13:26:24;6.25;;;5.65;;
20462;SDS011;10390;53.566;9.980;2023-07-24T13:28:49;6.15;;;5.55;;
20462;SDS011;10390;53.566;9.980;2023-07-24T13:31:16;5.72;;;5.22;;
20462;SDS011;10390;53.566;9.980;2023-07-24T13:33:43;6.45;;;5.80;;
20462;SDS011;10390;53.566;9.980;2023-07-24T13:36:08;6.15;;;5.55;;
20462;SDS011;10390;53.566;9.980;2023-07-24T13:38:34;6.28;;;5.78;;
20462;SDS011;10390;53.566;9.980;2023-07-24T13:41:00;5.93;;;5.43;;
20462;SDS011;10390;53.566;9.980;2023-07-24T13:43:27;6.50;;;5.90;;
20462;SDS011;10390;53.566;9.980;2023-07-24T13:45:53;6.78;;;6.18;;
20462;SDS011;10390;53.566;9.980;2023-07-24T13:48:19;6.95;;;6.35;;
20462;SDS011;10390;53.566;9.980;2023-07-24T13:50:44;6.90;;;6.30;;
20462;SDS011;10390;53.566;9.980;2023-07-24T13:53:10;5.97;;;5.47;;
20462;SDS011;10390;53.566;9.980;2023-07-24T13:55:37;7.03;;;5.65;;
20462;SDS011;10390;53.566;9.980;2023-07-24T13:58:02;6.38;;;5.78;;
20462;SDS011;10390;53.566;9.980;2023-07-24T14:00:28;6.88;;;6.28;;
20462;SDS011;10390;53.566;9.980;2023-07-24T14:02:53;7.13;;;6.53;;
20462;SDS011;10390;53.566;9.980;2023-07-24T14:05:19;6.63;;;6.03;;
20462;SDS011;10390;53.566;9.980;2023-07-24T14:07:45;6.22;;;5.63;;
20462;SDS011;10390;53.566;9.980;2023-07-24T14:10:10;6.82;;;6.22;;
20462;SDS011;10390;53.566;9.980;2023-07-24T14:12:36;7.13;;;6.53;;
20462;SDS011;10390;53.566;9.980;2023-07-24T14:15:02;6.63;;;6.00;;
20462;SDS011;10390;53.566;9.980;2023-07-24T14:17:28;6.35;;;5.75;;
20462;SDS011;10390;53.566;9.980;2023-07-24T14:19:54;6.90;;;6.30;;
20462;SDS011;10390;53.566;9.980;2023-07-24T14:22:19;7.38;;;6.78;;
20462;SDS011;10390;53.566;9.980;2023-07-24T14:24:45;6.28;;;5.78;;
20462;SDS011;10390;53.566;9.980;2023-07-24T14:27:11;6.18;;;5.68;;
20462;SDS011;10390;53.566;9.980;2023-07-24T14:29:38;6.45;;;5.88;;
20462;SDS011;10390;53.566;9.980;2023-07-24T14:32:04;6.07;;;5.57;;
20462;SDS011;10390;53.566;9.980;2023-07-24T14:34:31;6.68;;;6.07;;
20462;SDS011;10390;53.566;9.980;2023-07-24T14:36:56;6.00;;;5.50;;
20462;SDS011;10390;53.566;9.980;2023-07-24T14:39:22;6.05;;;5.50;;
20462;SDS011;10390;53.566;9.980;2023-07-24T14:41:48;6.30;;;5.70;;
20462;SDS011;10390;53.566;9.980;2023-07-24T14:44:13;6.10;;;5.60;;
20462;SDS011;10390;53.566;9.980;2023-07-24T14:46:39;6.95;;;6.35;;
20462;SDS011;10390;53.566;9.980;2023-07-24T14:49:04;6.65;;;6.05;;
20462;SDS011;10390;53.566;9.980;2023-07-24T14:51:30;6.32;;;5.72;;
20462;SDS011;10390;53.566;9.980;2023-07-24T14:53:55;6.60;;;6.00;;
20462;SDS011;10390;53.566;9.980;2023-07-24T14:56:21;6.70;;;6.10;;